createdAt,value
2023-02-14T06:32:12.354Z,9.50
2023-02-14T06:50:11.760Z,9.30
2023-02-14T06:55:19.056Z,9.10
2023-02-14T07:46:32.397Z,9.40
2023-02-14T08:20:33.169Z,10.10
2023-02-14T08:35:40.920Z,10.80
2023-02-14T08:38:25.307Z,10.90
2023-02-14T08:59:02.936Z,12.40
2023-02-14T09:01:38.802Z,12.40
2023-02-14T09:06:41.728Z,14.30
2023-02-14T09:09:26.042Z,14.80
2023-02-14T09:11:55.056Z,15.40
2023-02-14T09:26:51.890Z,19.10
2023-02-14T09:31:55.355Z,19.60
2023-02-14T09:42:28.708Z,19.80
2023-02-14T09:45:01.937Z,19.90
2023-02-14T09:48:02.022Z,20.10
2023-02-14T09:50:58.276Z,20.20
2023-02-14T09:56:20.664Z,20.20
2023-02-14T09:58:50.764Z,20.40
2023-02-14T10:01:55.249Z,20.60
2023-02-14T10:05:07.019Z,20.50
2023-02-14T10:07:57.041Z,21.00
2023-02-14T10:10:33.906Z,21.10
2023-02-14T10:13:20.735Z,21.50
2023-02-14T10:15:51.382Z,21.60
2023-02-14T10:18:37.839Z,21.60
2023-02-14T10:21:13.450Z,21.30
2023-02-14T10:23:49.601Z,21.20
2023-02-14T10:26:32.307Z,20.50
2023-02-14T10:31:39.208Z,20.10
2023-02-14T10:34:21.643Z,19.80
2023-02-14T10:37:20.649Z,19.60
2023-02-14T10:40:27.408Z,19.40
2023-02-14T10:43:12.511Z,19.40
2023-02-14T10:46:03.737Z,19.40
2023-02-14T10:48:46.700Z,19.50
2023-02-14T10:51:39.608Z,19.70
2023-02-14T10:54:16.112Z,20.00
2023-02-14T10:57:15.857Z,20.30
2023-02-14T10:59:54.460Z,20.70
2023-02-14T11:02:27.958Z,21.20
2023-02-14T11:04:59.091Z,21.70
2023-02-14T11:12:42.086Z,22.30
2023-02-14T11:15:19.349Z,22.60
2023-02-14T11:18:27.229Z,22.70
2023-02-14T11:21:00.586Z,22.80
